Terminal Aerodrome Forecast
Issued by NWS North Platte, NE

Home | Current Version | Previous Version | Text Only | Print | Product List | Glossary On
Versions: 1 2 3 4 5 6 7 8 9 10 11 12 13
299
FTUS43 KLBF 271720
TAFVTN
TAF
KVTN 271720Z 2718/2818 18020G30KT P6SM SCT120
     FM280100 20015G22KT P6SM VCTS BKN060CB OVC200
      TEMPO 2801/2804 33035G45KT 1SM +TSRA SQ OVC010CB
     FM280400 25008KT P6SM BKN050 BKN250
     FM280600 29010KT P6SM SCT250
     FM281500 34012G18KT P6SM SCT150=

USA.gov is the U.S. government's official web portal to all federal, state and local government web resources and services.